Time;durP1;ratioP1;P1;durP2;ratioP2;P2;SDS_P1;SDS_P2;PMS_P1;PMS_P2;Temp;Humidity;BMP_temperature;BMP_pressure;BME280_temperature;BME280_humidity;BME280_pressure;Samples;Min_cycle;Max_cycle;Signal;HPM_P1;HPM_P2
2022/05/02 00:02:18;;;;;;;22.67;11.60;;;;;;;9.28;65.68;100234.13;4158058;28;20242;-71
2022/05/02 00:04:45;;;;;;;22.47;11.03;;;;;;;9.13;66.77;100234.69;4183416;28;20243;-70
2022/05/02 00:07:12;;;;;;;21.70;10.67;;;;;;;9.11;66.15;100231.34;4200333;28;20236;-70
2022/05/02 00:09:39;;;;;;;21.87;10.70;;;;;;;9.17;65.44;100226.31;4187041;28;20300;-69
2022/05/02 00:12:06;;;;;;;20.53;11.07;;;;;;;9.12;65.63;100233.84;4188597;28;22829;-68
2022/05/02 00:14:32;;;;;;;20.70;10.77;;;;;;;9.12;65.65;100228.53;4176049;28;20333;-69
2022/05/02 00:16:59;;;;;;;24.73;10.80;;;;;;;9.23;65.43;100236.38;4185075;28;20342;-69
2022/05/02 00:19:26;;;;;;;21.73;10.57;;;;;;;9.23;65.61;100227.56;4193586;28;20339;-70
2022/05/02 00:21:52;;;;;;;25.77;10.60;;;;;;;9.25;65.17;100231.75;4183265;28;20241;-71
2022/05/02 00:24:19;;;;;;;20.27;10.47;;;;;;;9.22;65.11;100234.69;4180908;28;21226;-68
2022/05/02 00:26:45;;;;;;;23.07;10.57;;;;;;;9.25;65.23;100236.25;4203620;28;20232;-69
2022/05/02 00:29:12;;;;;;;23.63;10.67;;;;;;;9.27;65.31;100234.25;4183034;28;21938;-69
2022/05/02 00:31:39;;;;;;;24.80;10.53;;;;;;;9.30;64.92;100229.50;4191174;28;21182;-69
2022/05/02 00:34:05;;;;;;;22.43;11.10;;;;;;;9.26;65.41;100228.13;4191427;28;23446;-69
2022/05/02 00:36:32;;;;;;;22.87;10.23;;;;;;;9.25;65.57;100229.09;4183073;28;21160;-69
2022/05/02 00:38:59;;;;;;;21.33;10.20;;;;;;;9.23;66.00;100224.91;4175159;28;20240;-70
2022/05/02 00:41:27;;;;;;;18.10;9.23;;;;;;;9.29;65.85;100227.00;4176799;28;20716;-68
2022/05/02 00:43:54;;;;;;;19.23;9.57;;;;;;;9.24;66.15;100229.25;4171021;28;20319;-70
2022/05/02 00:46:25;;;;;;;21.27;10.40;;;;;;;9.22;66.10;100231.19;4172291;28;20249;-70
2022/05/02 00:48:52;;;;;;;22.00;9.70;;;;;;;9.25;66.27;100237.06;4193218;28;20235;-70
2022/05/02 00:51:19;;;;;;;22.77;9.77;;;;;;;9.25;66.31;100229.09;4184902;28;22301;-70
2022/05/02 00:53:48;;;;;;;16.67;9.93;;;;;;;9.22;66.43;100229.38;4176517;28;21257;-68
2022/05/02 00:56:16;;;;;;;22.17;10.60;;;;;;;9.21;66.44;100227.72;4187389;28;21977;-69
2022/05/02 00:58:42;;;;;;;21.07;10.77;;;;;;;9.15;67.01;100224.78;4177300;28;21606;-68
2022/05/02 01:01:09;;;;;;;19.23;10.00;;;;;;;9.16;66.55;100235.25;4177666;28;20256;-69
2022/05/02 01:03:36;;;;;;;19.30;10.37;;;;;;;9.19;66.95;100227.00;4177187;28;20311;-68
2022/05/02 01:08:49;;;;;;;21.23;9.97;;;;;;;9.14;66.89;100231.91;4193811;28;20228;-70
2022/05/02 01:11:15;;;;;;;19.60;10.17;;;;;;;9.15;66.87;100222.94;4191398;28;21434;-68
2022/05/02 01:13:47;;;;;;;22.23;10.10;;;;;;;9.11;67.24;100226.03;4177413;28;20239;-68
2022/05/02 01:16:20;;;;;;;25.10;11.00;;;;;;;9.13;67.27;100232.03;4188723;28;20233;-68
2022/05/02 01:18:48;;;;;;;16.93;9.70;;;;;;;9.04;68.01;100226.59;4181276;28;20252;-69
2022/05/02 01:21:20;;;;;;;19.27;9.43;;;;;;;9.05;67.88;100227.44;4181252;28;20927;-68
2022/05/02 01:23:48;;;;;;;15.67;9.20;;;;;;;9.00;67.59;100219.06;4169990;28;20233;-70
2022/05/02 01:26:14;;;;;;;19.70;9.60;;;;;;;8.91;68.54;100215.41;4182120;28;20651;-70
2022/05/02 01:28:46;;;;;;;24.93;10.90;;;;;;;8.85;68.45;100214.19;4191460;28;23005;-67
2022/05/02 01:31:13;;;;;;;21.00;9.77;;;;;;;8.83;68.66;100213.47;4176194;28;21566;-70
2022/05/02 01:33:40;;;;;;;23.70;10.33;;;;;;;8.84;68.71;100217.78;4177453;28;21235;-69
2022/05/02 01:36:08;;;;;;;18.17;9.10;;;;;;;8.89;68.40;100222.69;4179639;28;20309;-69
2022/05/02 01:38:35;;;;;;;21.10;9.40;;;;;;;8.93;68.34;100225.91;4169361;28;20326;-69
2022/05/02 01:41:06;;;;;;;22.10;9.83;;;;;;;8.97;68.40;100222.00;4169977;28;20229;-68
2022/05/02 01:43:33;;;;;;;25.80;9.67;;;;;;;8.96;68.27;100217.66;4172017;28;20237;-68
2022/05/02 01:46:00;;;;;;;24.23;9.37;;;;;;;8.92;68.63;100219.78;4185027;28;20287;-68
2022/05/02 01:48:27;;;;;;;19.07;9.43;;;;;;;8.97;68.44;100216.69;4172114;28;23466;-69
2022/05/02 01:50:54;;;;;;;20.37;9.77;;;;;;;8.90;68.49;100215.56;4182352;28;22018;-70
2022/05/02 01:53:23;;;;;;;18.43;9.87;;;;;;;8.87;68.99;100214.03;4165558;28;20236;-70
2022/05/02 01:55:49;;;;;;;19.43;8.83;;;;;;;8.82;68.94;100211.78;4175082;28;25655;-70
2022/05/02 01:58:16;;;;;;;20.60;10.10;;;;;;;8.74;69.46;100206.34;4175211;28;20272;-69
2022/05/02 02:00:43;;;;;;;22.90;10.20;;;;;;;8.69;69.62;100211.25;4179044;28;20253;-69
2022/05/02 02:03:09;;;;;;;18.90;9.60;;;;;;;8.84;69.08;100209.00;4171209;28;20234;-68
2022/05/02 02:05:48;;;;;;;23.20;10.47;;;;;;;8.78;69.45;100221.03;4163922;28;21311;-68
2022/05/02 02:08:23;;;;;;;21.80;9.73;;;;;;;8.78;69.09;100221.03;4174303;28;20268;-70
2022/05/02 02:10:55;;;;;;;21.23;10.17;;;;;;;8.68;69.46;100220.16;4173015;28;21171;-69
2022/05/02 02:13:22;;;;;;;18.27;10.07;;;;;;;8.52;70.91;100225.16;4179777;28;23871;-68
2022/05/02 02:15:49;;;;;;;19.30;9.97;;;;;;;8.42;70.73;100218.03;4179945;28;20233;-69
2022/05/02 02:18:15;;;;;;;21.67;10.63;;;;;;;8.30;71.47;100221.72;4175155;28;20252;-69
2022/05/02 02:20:43;;;;;;;21.97;9.97;;;;;;;8.22;72.21;100227.72;4175218;28;20257;-70
2022/05/02 02:23:11;;;;;;;25.70;9.50;;;;;;;8.19;72.99;100220.03;4179763;28;20241;-68
2022/05/02 02:25:38;;;;;;;18.97;10.27;;;;;;;8.29;72.46;100227.16;4160377;28;20241;-70
2022/05/02 02:28:04;;;;;;;18.37;9.27;;;;;;;8.36;72.27;100220.38;4188278;28;20236;-68
2022/05/02 02:30:31;;;;;;;17.80;9.90;;;;;;;8.34;72.52;100220.50;4180863;28;20230;-70
2022/05/02 02:32:58;;;;;;;22.97;10.07;;;;;;;8.32;72.61;100225.09;4177977;28;20333;-69
2022/05/02 02:35:25;;;;;;;20.07;9.03;;;;;;;8.00;73.51;100219.97;4171772;28;20340;-69
2022/05/02 02:37:52;;;;;;;17.70;9.67;;;;;;;7.96;74.06;100224.69;4178134;28;20227;-70
2022/05/02 02:40:19;;;;;;;20.53;10.07;;;;;;;7.87;74.09;100224.66;4186793;28;20233;-70
2022/05/02 02:42:45;;;;;;;19.33;9.57;;;;;;;7.85;74.53;100221.31;4172029;28;24247;-70
2022/05/02 02:45:12;;;;;;;21.37;9.90;;;;;;;7.98;74.08;100222.75;4176563;28;21788;-70
2022/05/02 02:47:40;;;;;;;21.87;9.70;;;;;;;8.00;73.99;100223.44;4178504;28;20238;-69
2022/05/02 02:50:07;;;;;;;23.63;10.07;;;;;;;7.90;74.16;100214.63;4165817;28;20340;-70
2022/05/02 02:52:33;;;;;;;19.10;9.07;;;;;;;8.00;73.92;100226.09;4178558;28;20459;-70
2022/05/02 02:55:00;;;;;;;20.67;9.30;;;;;;;7.95;73.90;100217.72;4184458;28;20243;-68
2022/05/02 02:57:26;;;;;;;22.90;9.43;;;;;;;7.98;73.98;100220.13;4169821;28;20240;-69
2022/05/02 02:59:53;;;;;;;19.43;9.33;;;;;;;8.01;74.02;100221.66;4181560;28;20278;-70
2022/05/02 03:02:19;;;;;;;17.53;8.40;;;;;;;8.07;74.40;100223.75;4172644;28;20347;-72
2022/05/02 03:07:31;;;;;;;19.90;9.20;;;;;;;8.08;73.84;100227.22;4182165;28;20234;-68
2022/05/02 03:09:58;;;;;;;15.33;8.37;;;;;;;8.12;73.74;100232.13;4173995;28;20230;-69
2022/05/02 03:12:25;;;;;;;23.87;8.67;;;;;;;7.97;74.51;100231.66;4173852;28;20248;-70
2022/05/02 03:14:51;;;;;;;18.37;9.20;;;;;;;7.97;74.60;100225.53;4174859;28;20272;-69
2022/05/02 03:17:18;;;;;;;17.80;8.43;;;;;;;8.00;74.88;100225.25;4174095;28;20362;-69
2022/05/02 03:19:45;;;;;;;19.03;8.83;;;;;;;7.84;75.23;100228.38;4172516;28;21650;-70
2022/05/02 03:22:11;;;;;;;16.97;8.70;;;;;;;7.92;74.87;100231.22;4189291;28;21682;-70
2022/05/02 03:24:38;;;;;;;20.23;9.00;;;;;;;8.00;75.19;100231.38;4188970;28;21390;-70
2022/05/02 03:27:05;;;;;;;17.10;8.60;;;;;;;8.03;75.30;100230.31;4182447;28;22071;-68
2022/05/02 03:29:32;;;;;;;25.20;9.00;;;;;;;7.95;75.42;100227.47;4194902;28;20232;-69
2022/05/02 03:31:58;;;;;;;15.40;8.53;;;;;;;7.96;75.00;100230.00;4189584;28;20237;-69
2022/05/02 03:34:25;;;;;;;17.77;8.70;;;;;;;8.00;74.99;100220.78;4179807;28;20252;-70
2022/05/02 03:36:52;;;;;;;18.97;9.10;;;;;;;8.01;75.08;100225.13;4176859;28;20357;-70
2022/05/02 03:39:18;;;;;;;22.53;8.47;;;;;;;7.89;75.26;100228.84;4199151;28;25471;-69
2022/05/02 03:41:45;;;;;;;20.73;9.50;;;;;;;7.80;76.10;100221.69;4199491;28;25573;-70
2022/05/02 03:44:11;;;;;;;21.40;9.67;;;;;;;7.76;76.38;100222.94;4175740;28;20233;-69
2022/05/02 03:46:38;;;;;;;18.27;9.87;;;;;;;7.71;77.15;100225.97;4194428;28;20242;-71
2022/05/02 03:49:04;;;;;;;20.90;10.30;;;;;;;7.77;76.85;100228.09;4182516;28;22773;-69
2022/05/02 03:51:31;;;;;;;17.30;9.53;;;;;;;7.85;76.44;100224.78;4173502;28;20305;-70
2022/05/02 03:53:57;;;;;;;20.70;9.70;;;;;;;7.94;75.97;100231.94;4192831;28;20249;-69
2022/05/02 03:56:24;;;;;;;16.40;9.73;;;;;;;8.17;75.28;100229.06;4183083;28;20244;-70
2022/05/02 03:58:51;;;;;;;21.60;9.47;;;;;;;8.21;74.89;100233.16;4179965;28;20242;-70
2022/05/02 04:01:18;;;;;;;20.23;8.90;;;;;;;8.28;74.48;100226.31;4187842;28;22363;-68
2022/05/02 04:03:46;;;;;;;21.63;9.23;;;;;;;8.24;74.79;100230.22;4178274;28;20237;-69
2022/05/02 04:06:13;;;;;;;22.13;9.57;;;;;;;8.25;74.67;100235.41;4183355;28;21513;-69
2022/05/02 04:08:40;;;;;;;20.23;9.30;;;;;;;8.38;74.63;100229.88;4185010;28;20769;-69
2022/05/02 04:11:06;;;;;;;17.83;9.50;;;;;;;8.45;74.30;100236.31;4179483;28;21760;-68
2022/05/02 04:13:33;;;;;;;18.17;9.27;;;;;;;8.48;73.95;100234.38;4177588;28;21776;-69
2022/05/02 04:16:00;;;;;;;17.63;8.47;;;;;;;8.41;73.90;100229.63;4169899;28;21307;-69
2022/05/02 04:18:26;;;;;;;15.80;9.30;;;;;;;8.50;74.00;100235.06;4186336;28;20267;-69
2022/05/02 04:20:53;;;;;;;18.47;8.37;;;;;;;8.55;73.20;100236.34;4184720;28;22431;-69
2022/05/02 04:23:19;;;;;;;16.47;8.80;;;;;;;8.61;73.28;100240.25;4181545;28;20241;-69
2022/05/02 04:25:46;;;;;;;16.47;9.33;;;;;;;8.67;72.52;100239.72;4188074;28;20232;-68
2022/05/02 04:28:13;;;;;;;16.33;8.63;;;;;;;8.71;72.47;100241.13;4173081;28;20271;-69
2022/05/02 04:30:39;;;;;;;16.27;8.93;;;;;;;8.81;72.47;100241.97;4179263;28;21809;-70
2022/05/02 04:33:06;;;;;;;17.47;8.83;;;;;;;8.79;72.28;100238.59;4181739;28;20297;-69
2022/05/02 04:35:32;;;;;;;19.90;9.07;;;;;;;8.84;71.91;100246.16;4177312;28;20237;-70
2022/05/02 04:38:01;;;;;;;20.60;8.37;;;;;;;9.03;71.13;100250.63;4180673;28;20422;-69
2022/05/02 04:40:27;;;;;;;20.40;9.10;;;;;;;8.98;70.80;100250.22;4177229;28;21644;-69
2022/05/02 04:42:54;;;;;;;18.70;8.33;;;;;;;9.00;70.87;100248.25;4195795;28;21411;-70
2022/05/02 04:45:21;;;;;;;19.73;8.83;;;;;;;9.13;70.18;100246.16;4173456;28;20317;-68
2022/05/02 04:47:47;;;;;;;15.37;8.07;;;;;;;9.16;69.64;100245.88;4191485;28;20226;-71
2022/05/02 04:50:14;;;;;;;19.27;9.07;;;;;;;9.23;69.87;100241.69;4193949;28;22527;-71
2022/05/02 04:52:40;;;;;;;14.80;8.33;;;;;;;9.33;69.81;100246.97;4179197;28;20233;-72
2022/05/02 04:55:07;;;;;;;18.90;8.77;;;;;;;9.40;69.10;100244.59;4175952;28;22821;-70
2022/05/02 04:57:34;;;;;;;18.07;9.27;;;;;;;9.50;68.56;100256.03;4171925;28;21520;-73
2022/05/02 05:00:01;;;;;;;18.47;8.60;;;;;;;9.52;68.37;100244.28;4214859;28;21159;-69
2022/05/02 05:02:27;;;;;;;17.57;8.23;;;;;;;9.67;67.11;100244.69;4158331;28;20288;-72
2022/05/02 05:04:54;;;;;;;21.60;8.77;;;;;;;9.65;67.06;100240.50;4185136;28;20226;-71
2022/05/02 05:07:21;;;;;;;15.33;7.83;;;;;;;9.72;66.52;100238.94;4179598;28;21628;-71
2022/05/02 05:09:48;;;;;;;21.30;8.40;;;;;;;9.80;66.58;100239.03;4184713;28;20384;-72
2022/05/02 05:12:31;;;;;;;20.80;8.67;;;;;;;9.91;66.09;100240.69;4191351;28;20246;-70
2022/05/02 05:18:21;;;;;;;18.60;8.37;;;;;;;10.12;64.75;100241.31;4182523;28;21088;-69
2022/05/02 05:21:03;;;;;;;24.60;9.00;;;;;;;10.28;63.44;100246.03;4182454;28;20246;-72
2022/05/02 05:24:23;;;;;;;20.93;8.03;;;;;;;10.39;63.66;100239.66;4174595;28;20740;-71
2022/05/02 05:27:03;;;;;;;21.13;8.27;;;;;;;10.60;61.09;100242.06;4181962;28;21321;-69
2022/05/02 05:29:49;;;;;;;19.60;7.60;;;;;;;10.71;60.33;100244.50;4178504;28;20334;-71
2022/05/02 05:32:28;;;;;;;14.70;7.63;;;;;;;10.89;59.27;100246.34;4196282;28;22308;-72
2022/05/02 05:35:09;;;;;;;14.33;6.93;;;;;;;11.11;58.90;100250.38;4180062;28;20235;-71
2022/05/02 05:38:00;;;;;;;13.33;6.80;;;;;;;11.28;57.79;100241.50;4184471;28;20231;-71
2022/05/02 05:40:38;;;;;;;14.00;6.70;;;;;;;11.41;55.29;100252.63;4192496;28;20341;-72
2022/05/02 05:43:46;;;;;;;16.57;6.50;;;;;;;11.66;53.90;100239.47;4173765;28;20237;-71
2022/05/02 05:46:57;;;;;;;16.17;7.30;;;;;;;11.87;53.60;100249.81;4192396;28;20233;-71
2022/05/02 05:49:54;;;;;;;13.17;6.33;;;;;;;11.94;52.12;100247.31;4209253;28;20237;-70
2022/05/02 05:52:28;;;;;;;11.90;6.10;;;;;;;12.15;51.49;100254.94;4193136;28;20241;-70
2022/05/02 05:55:06;;;;;;;16.27;6.60;;;;;;;12.39;50.85;100248.88;4191251;28;20702;-70
2022/05/02 05:57:50;;;;;;;14.67;5.60;;;;;;;12.79;48.26;100252.66;4207422;28;20236;-73
2022/05/02 06:00:18;;;;;;;13.30;5.57;;;;;;;13.82;46.16;100255.69;4186419;28;20232;-71
2022/05/02 06:03:08;;;;;;;15.13;5.63;;;;;;;15.53;41.17;100271.84;4173535;28;21216;-69
2022/05/02 06:05:39;;;;;;;11.90;5.77;;;;;;;16.89;37.39;100275.19;4196076;28;20242;-73
2022/05/02 06:08:13;;;;;;;13.60;5.67;;;;;;;17.95;34.40;100280.69;4225184;28;20308;-72
2022/05/02 06:10:41;;;;;;;12.73;5.80;;;;;;;18.25;33.41;100277.78;4188993;28;20391;-72
2022/05/02 06:13:08;;;;;;;12.40;5.37;;;;;;;18.78;32.65;100283.44;4182334;28;20296;-70
2022/05/02 06:18:28;;;;;;;9.37;4.43;;;;;;;20.19;29.45;100280.59;4220185;28;20232;-70
2022/05/02 06:21:02;;;;;;;8.63;4.70;;;;;;;20.59;28.72;100288.59;4194131;28;20313;-73
2022/05/02 06:23:33;;;;;;;12.40;5.30;;;;;;;20.50;28.50;100276.31;4210267;28;20313;-70
2022/05/02 06:26:02;;;;;;;10.40;4.60;;;;;;;21.91;26.99;100288.78;4211660;28;20234;-71
2022/05/02 06:28:31;;;;;;;8.27;4.77;;;;;;;22.18;26.33;100287.69;4181842;28;20394;-72
2022/05/02 06:31:00;;;;;;;9.77;4.53;;;;;;;22.96;25.90;100295.91;4201694;28;21867;-71
2022/05/02 06:33:26;;;;;;;11.97;5.27;;;;;;;22.74;24.23;100298.28;4192102;28;25061;-71
2022/05/02 06:35:56;;;;;;;12.00;4.87;;;;;;;23.56;23.86;100308.63;4193060;28;20265;-72
2022/05/02 06:39:01;;;;;;;7.77;4.87;;;;;;;23.69;23.00;100314.88;4208754;28;25116;-72
2022/05/02 06:41:43;;;;;;;9.73;5.50;;;;;;;24.18;22.14;100315.50;4209376;28;20895;-72
2022/05/02 06:44:28;;;;;;;9.67;5.00;;;;;;;25.33;20.66;100313.78;4222458;28;20434;-68
2022/05/02 06:47:05;;;;;;;11.77;4.93;;;;;;;25.06;21.27;100313.56;4217419;28;21820;-73
2022/05/02 06:49:33;;;;;;;8.07;4.30;;;;;;;25.79;20.73;100311.00;4206296;28;22486;-73
2022/05/02 06:52:05;;;;;;;10.40;4.00;;;;;;;26.42;19.20;100314.38;4219519;28;20288;-73
2022/05/02 06:55:03;;;;;;;8.50;4.00;;;;;;;26.98;18.54;100312.34;4197731;28;20332;-72
2022/05/02 06:57:57;;;;;;;6.03;3.57;;;;;;;27.87;17.75;100318.41;4193565;28;20233;-70
2022/05/02 07:00:24;;;;;;;10.73;4.53;;;;;;;28.46;16.69;100315.47;4210007;28;20254;-71
2022/05/02 07:03:27;;;;;;;12.17;4.30;;;;;;;28.11;17.80;100314.16;4204591;28;20241;-58
2022/05/02 07:06:22;;;;;;;8.10;4.17;;;;;;;27.75;18.46;100307.63;4222467;28;20311;-62
2022/05/02 07:08:52;;;;;;;12.18;4.53;;;;;;;28.10;17.45;100315.25;4207470;28;20235;-71
2022/05/02 07:11:20;;;;;;;12.55;4.50;;;;;;;28.01;18.34;100307.81;4187451;28;22171;-69
2022/05/02 07:14:17;;;;;;;9.03;4.10;;;;;;;27.84;18.78;100313.44;4198928;28;20685;-70
2022/05/02 07:16:49;;;;;;;11.10;4.53;;;;;;;27.15;19.22;100307.59;4167020;28;20256;-71
2022/05/02 07:19:40;;;;;;;10.85;4.68;;;;;;;27.81;17.57;100308.47;4205982;28;20235;-70
2022/05/02 07:22:11;;;;;;;10.75;3.90;;;;;;;29.28;16.66;100313.00;4230876;28;20412;-70
2022/05/02 07:24:57;;;;;;;11.00;4.40;;;;;;;30.20;16.52;100315.69;4192194;28;20230;-70
2022/05/02 07:27:53;;;;;;;14.57;5.15;;;;;;;29.18;15.76;100316.56;4201144;28;20230;-71
2022/05/02 07:30:23;;;;;;;11.02;4.35;;;;;;;27.69;18.38;100306.72;4212151;28;21257;-70
2022/05/02 07:32:51;;;;;;;12.43;4.40;;;;;;;27.73;17.60;100315.25;4205179;28;20226;-70
2022/05/02 07:35:18;;;;;;;10.48;4.13;;;;;;;27.76;18.20;100317.47;4209149;28;22636;-71
2022/05/02 07:37:46;;;;;;;11.07;4.82;;;;;;;27.32;18.59;100313.00;4208958;28;22252;-70
2022/05/02 07:40:16;;;;;;;9.70;3.67;;;;;;;27.33;18.46;100306.44;4188092;28;20225;-72
2022/05/02 07:42:44;;;;;;;8.00;3.97;;;;;;;26.77;19.42;100308.56;4190834;28;20250;-71
2022/05/02 07:45:13;;;;;;;8.63;4.30;;;;;;;26.53;20.30;100303.34;4202614;28;20232;-72
2022/05/02 07:47:44;;;;;;;9.70;4.57;;;;;;;25.73;20.58;100301.09;4207756;28;20242;-72
2022/05/02 07:50:13;;;;;;;10.83;4.27;;;;;;;23.56;22.52;100283.34;4186495;28;20242;-72
2022/05/02 07:52:41;;;;;;;8.87;4.70;;;;;;;23.58;22.98;100281.22;4182180;28;20976;-72
2022/05/02 07:55:09;;;;;;;11.73;4.40;;;;;;;23.29;24.43;100282.94;4229327;28;20236;-72
2022/05/02 07:57:38;;;;;;;8.47;4.23;;;;;;;22.92;24.59;100272.16;4200703;28;21896;-71
2022/05/02 08:00:10;;;;;;;16.13;4.60;;;;;;;23.18;24.04;100271.81;4210417;28;20234;-73
2022/05/02 08:02:37;;;;;;;13.57;4.73;;;;;;;21.94;24.93;100260.41;4228238;28;20240;-70
2022/05/02 08:05:05;;;;;;;8.27;4.80;;;;;;;22.06;24.56;100268.63;4209407;28;22973;-70
2022/05/02 08:07:34;;;;;;;8.33;4.90;;;;;;;21.89;25.17;100260.22;4181550;28;21592;-71
2022/05/02 08:10:35;;;;;;;16.13;4.83;;;;;;;21.60;25.21;100261.75;4181225;28;20241;-70
2022/05/02 08:13:28;;;;;;;8.10;4.63;;;;;;;21.48;25.89;100257.06;4201929;28;22340;-71
2022/05/02 08:16:22;;;;;;;12.87;4.20;;;;;;;21.50;26.85;100257.66;4205768;28;21723;-70
2022/05/02 08:19:08;;;;;;;12.77;4.70;;;;;;;21.70;25.64;100253.94;4196914;28;20249;-71
2022/05/02 08:21:43;;;;;;;10.37;4.33;;;;;;;21.42;25.61;100252.53;4196349;28;20349;-71
2022/05/02 08:27:31;;;;;;;11.50;4.73;;;;;;;20.76;27.75;100237.53;4174704;28;21329;-59
2022/05/02 08:30:08;;;;;;;9.87;4.60;;;;;;;20.74;27.58;100238.81;4227776;28;20296;-72
2022/05/02 08:33:06;;;;;;;9.67;4.33;;;;;;;20.87;29.01;100238.75;4194858;28;23067;-62
2022/05/02 08:36:00;;;;;;;12.13;4.30;;;;;;;20.51;27.57;100232.06;4216843;28;20253;-72
2022/05/02 08:38:59;;;;;;;10.03;4.27;;;;;;;20.00;28.66;100224.75;4192098;28;20436;-68
2022/05/02 08:41:28;;;;;;;18.10;4.50;;;;;;;19.84;28.87;100231.44;4181762;28;20242;-72
2022/05/02 08:44:37;;;;;;;9.07;4.30;;;;;;;19.81;29.31;100232.69;4180526;28;20245;-71
2022/05/02 08:47:30;;;;;;;8.93;4.03;;;;;;;20.14;28.01;100228.25;4194130;28;22053;-67
2022/05/02 08:50:10;;;;;;;7.07;4.00;;;;;;;20.14;28.07;100222.84;4191050;28;20356;-73
2022/05/02 08:53:04;;;;;;;13.13;4.30;;;;;;;19.91;28.70;100217.91;4179751;28;20255;-76
2022/05/02 08:56:00;;;;;;;14.73;4.30;;;;;;;19.91;27.99;100207.13;4196804;28;20290;-71
2022/05/02 08:59:09;;;;;;;9.23;4.00;;;;;;;19.73;28.31;100211.28;4177660;28;20230;-74
2022/05/02 09:02:01;;;;;;;7.83;4.03;;;;;;;19.10;29.09;100202.78;4187992;28;20242;-72
2022/05/02 09:04:49;;;;;;;8.03;3.90;;;;;;;19.23;28.17;100208.19;4216311;28;22251;-73
2022/05/02 09:07:54;;;;;;;11.17;4.67;;;;;;;19.61;29.68;100210.25;4207373;28;20273;-74
2022/05/02 09:10:32;;;;;;;11.83;4.07;;;;;;;19.34;28.96;100201.38;4228734;28;20233;-74
2022/05/02 09:13:36;;;;;;;9.87;3.77;;;;;;;19.87;28.52;100205.88;4222390;28;25135;-72
2022/05/02 09:16:27;;;;;;;10.63;4.27;;;;;;;19.82;28.74;100199.22;4219761;28;20262;-73
2022/05/02 09:19:01;;;;;;;9.80;4.20;;;;;;;19.98;29.13;100194.41;4218052;28;21402;-75
2022/05/02 09:21:40;;;;;;;10.97;4.67;;;;;;;20.27;27.39;100203.84;4195132;28;20446;-72
2022/05/02 09:24:31;;;;;;;12.53;5.07;;;;;;;20.18;27.02;100199.75;4206179;28;20473;-73
2022/05/02 09:27:24;;;;;;;19.93;5.27;;;;;;;20.02;29.20;100195.66;4215146;28;20244;-74
2022/05/02 09:30:33;;;;;;;12.87;5.20;;;;;;;19.94;28.26;100190.47;4217987;28;20471;-70
2022/05/02 09:33:29;;;;;;;9.67;5.13;;;;;;;18.88;30.26;100186.81;4242996;28;20791;-77
2022/05/02 09:36:19;;;;;;;8.37;4.47;;;;;;;19.33;28.71;100189.72;4215928;28;21644;-76
2022/05/02 09:39:12;;;;;;;8.37;4.40;;;;;;;19.60;28.27;100192.41;4232120;28;20235;-73
2022/05/02 09:42:08;;;;;;;8.80;4.73;;;;;;;19.60;28.25;100173.50;4211529;28;22400;-72
2022/05/02 09:51:32;;;;;;;9.43;4.47;;;;;;;19.59;28.39;100169.13;4208242;28;20666;-75
2022/05/02 09:57:20;;;;;;;9.43;5.07;;;;;;;19.62;29.10;100166.03;4207098;28;21639;-73
2022/05/02 10:02:48;;;;;;;13.93;4.93;;;;;;;18.89;29.02;100161.50;4242146;28;22068;-73
2022/05/02 10:05:40;;;;;;;14.87;5.07;;;;;;;19.44;28.56;100158.59;4195757;28;21022;-74
2022/05/02 10:08:40;;;;;;;11.43;4.30;;;;;;;19.85;29.49;100162.03;4213128;28;20299;-55
2022/05/02 10:11:39;;;;;;;11.33;4.53;;;;;;;20.15;28.13;100160.47;4318699;28;20633;-75
2022/05/02 10:14:30;;;;;;;10.33;4.90;;;;;;;19.67;28.19;100147.31;4272510;28;20271;-70
2022/05/02 10:17:04;;;;;;;6.93;3.73;;;;;;;20.10;28.20;100146.78;4284340;28;20240;-74
2022/05/02 10:19:52;;;;;;;8.30;3.73;;;;;;;19.92;26.53;100150.16;4287330;28;23292;-70
2022/05/02 10:22:32;;;;;;;12.50;4.30;;;;;;;19.84;27.70;100141.50;4345174;28;20320;-59
2022/05/02 10:25:19;;;;;;;10.67;5.10;;;;;;;20.03;26.58;100135.19;4293208;28;20244;-64
2022/05/02 10:28:08;;;;;;;11.00;4.70;;;;;;;19.97;27.67;100131.47;4288451;28;20242;-56
2022/05/02 10:30:43;;;;;;;7.30;3.70;;;;;;;20.33;26.63;100129.22;4236710;28;23068;-56
2022/05/02 10:33:14;;;;;;;8.77;3.70;;;;;;;19.84;28.94;100122.59;4219641;28;20241;-58
2022/05/02 10:35:46;;;;;;;9.23;4.20;;;;;;;20.16;28.46;100118.09;4213555;28;20261;-58
2022/05/02 10:38:25;;;;;;;10.87;4.10;;;;;;;20.16;28.29;100118.09;4185558;28;20296;-60
2022/05/02 10:40:59;;;;;;;8.37;4.03;;;;;;;19.84;28.40;100117.19;4195234;28;21549;-64
2022/05/02 10:43:26;;;;;;;13.73;4.13;;;;;;;20.01;27.89;100110.25;4208991;28;20419;-66
2022/05/02 10:45:53;;;;;;;12.57;3.77;;;;;;;20.16;28.24;100115.41;4178303;28;20900;-60
2022/05/02 10:48:19;;;;;;;6.50;3.70;;;;;;;20.43;28.48;100113.34;4181645;28;23841;-67
2022/05/02 10:51:05;;;;;;;8.23;3.20;;;;;;;20.96;27.54;100109.47;4184100;28;20648;-67
2022/05/02 10:53:59;;;;;;;7.73;3.47;;;;;;;21.33;27.18;100113.09;4204711;28;20276;-69
2022/05/02 10:56:32;;;;;;;6.63;3.10;;;;;;;21.49;26.37;100112.53;4193870;28;20297;-68
2022/05/02 10:59:04;;;;;;;11.07;3.77;;;;;;;21.24;26.33;100111.72;4219622;28;20328;-67
2022/05/02 11:02:22;;;;;;;11.50;3.43;;;;;;;21.12;27.37;100100.78;4198466;28;26112;-67
2022/05/02 11:05:07;;;;;;;15.57;3.30;;;;;;;21.49;26.68;100101.69;4163771;28;21894;-72
2022/05/02 11:07:56;;;;;;;13.40;3.07;;;;;;;21.47;26.81;100101.09;4184957;28;20976;-70
2022/05/02 11:10:38;;;;;;;8.83;3.07;;;;;;;21.62;27.45;100097.19;4209581;28;21726;-65
2022/05/02 11:13:15;;;;;;;12.73;5.40;;;;;;;21.39;27.82;100090.50;4200921;28;21335;-62
2022/05/02 11:16:02;;;;;;;8.83;4.03;;;;;;;21.15;27.59;100099.53;4196499;28;20649;-58
2022/05/02 11:21:29;;;;;;;11.90;3.70;;;;;;;20.55;28.59;100092.69;4206477;28;21251;-65
2022/05/02 11:24:10;;;;;;;10.60;3.50;;;;;;;20.48;28.74;100091.06;4199416;28;20235;-60
2022/05/02 11:27:05;;;;;;;12.57;3.60;;;;;;;20.33;29.12;100086.81;4197479;28;22297;-71
2022/05/02 11:29:38;;;;;;;23.93;4.43;;;;;;;20.03;29.58;100089.25;4188894;28;20736;-68
2022/05/02 11:32:06;;;;;;;9.93;3.23;;;;;;;19.86;30.50;100085.41;4190573;28;22178;-67
2022/05/02 11:34:38;;;;;;;21.80;3.70;;;;;;;19.79;30.85;100082.72;4171552;28;20333;-62
2022/05/02 11:37:09;;;;;;;8.83;3.50;;;;;;;19.57;31.39;100076.75;4179595;28;20231;-67
2022/05/02 11:39:49;;;;;;;11.20;3.40;;;;;;;19.83;31.64;100083.97;4183905;28;20246;-61
2022/05/02 11:42:21;;;;;;;12.73;3.23;;;;;;;19.96;30.61;100085.75;4232819;28;20243;-68
2022/05/02 11:44:59;;;;;;;7.10;3.60;;;;;;;19.94;30.37;100082.44;4202979;28;21754;-53
2022/05/02 11:47:55;;;;;;;10.43;3.73;;;;;;;19.69;31.06;100075.09;4224212;28;21777;-72
2022/05/02 11:50:24;;;;;;;9.40;3.57;;;;;;;19.98;30.32;100079.09;4205999;28;20250;-67
2022/05/02 11:52:53;;;;;;;10.17;3.30;;;;;;;20.15;29.09;100074.03;4240947;28;25474;-69
2022/05/02 11:55:31;;;;;;;8.20;3.50;;;;;;;20.21;28.85;100078.56;4215562;28;20393;-67
2022/05/02 11:58:08;;;;;;;6.27;3.67;;;;;;;20.28;27.77;100070.41;4207352;28;22883;-66
2022/05/02 12:00:36;;;;;;;6.57;3.40;;;;;;;20.52;27.84;100068.78;4271830;28;21201;-67
2022/05/02 12:03:04;;;;;;;8.40;3.23;;;;;;;20.01;27.98;100056.22;4261088;28;20238;-67
2022/05/02 12:05:36;;;;;;;8.17;3.60;;;;;;;20.20;27.74;100055.28;4214430;28;21856;-66
2022/05/02 12:08:07;;;;;;;7.20;3.10;;;;;;;19.91;28.20;100058.59;4237593;28;20229;-65
2022/05/02 12:10:42;;;;;;;7.30;3.43;;;;;;;19.92;28.15;100050.25;4246406;28;20322;-66
2022/05/02 12:13:14;;;;;;;7.83;3.60;;;;;;;19.90;28.70;100048.81;4263454;28;21403;-68
2022/05/02 12:16:01;;;;;;;8.30;3.37;;;;;;;19.54;28.69;100042.09;4232022;28;22128;-70
2022/05/02 12:18:48;;;;;;;5.83;3.20;;;;;;;19.66;28.30;100045.78;4204656;28;20465;-67
2022/05/02 12:21:20;;;;;;;6.80;3.30;;;;;;;19.50;28.72;100038.16;4196022;28;20273;-67
2022/05/02 12:23:48;;;;;;;6.27;3.07;;;;;;;19.49;28.87;100031.09;4209350;28;20497;-69
2022/05/02 12:26:20;;;;;;;8.33;3.60;;;;;;;19.28;28.57;100019.53;4216711;28;20670;-66
2022/05/02 12:28:52;;;;;;;8.00;2.83;;;;;;;19.86;28.40;100018.72;4247172;28;20249;-70